Sigas Ingrid — VRCQ6 — position and weather

sailwx.info

Track history (hours):
 
Tides and Currents Weather Stations Pressure Air Temp Water Temp Dewpoint Dewpoint Depression Visibility Wind Speed Wind Dir Waves Ship Positions

Sigas Ingrid

Last reported at 2014-Aug-23 03:27 UTC. Time now 2014-Aug-23 05:36 UTC.
Position N 38°55' E 012°42'.

Length 100 m; draft 5.5 m.

Type: Ship (hazmat cat B). MMSI: 477658800.

Date/timePositionNaut miles runAvg speedWind from/ knotsBaromVisibWave heightAir tempDewpointWater temp
2014-Aug-23 03:27N 38°55' E 012°42'1111.9
2014-Aug-23 02:33N 38°47' E 012°34'1312.2
2014-Aug-23 01:32N 38°36' E 012°25'11010.5
2014-Aug-22 15:04N 36°46' E 012°28'8012.4
2014-Aug-22 08:33N 35°27' E 012°48'1212.2
2014-Aug-22 07:33N 35°15' E 012°51'1211.9
2014-Aug-22 06:33N 35°03' E 012°52'1111.1
2014-Aug-22 05:33N 34°58' E 012°40'1111.2
2014-Aug-22 04:33N 34°53' E 012°28'1111.2
2014-Aug-22 03:33N 34°48' E 012°16'1511.3
2014-Aug-22 02:11N 34°41' E 011°59'4211.1
2014-Aug-21 22:26N 34°23' E 011°13'2111.0
2014-Aug-21 20:29N 34°14' E 010°50'2511.0
2014-Aug-21 18:14N 34°03' E 010°23'710.7
2014-Aug-21 17:33N 33°60' E 010°15'9 8.1
2014-Aug-21 16:28N 33°55' E 010°06'0 0.0
2014-Aug-21 15:28N 33°55' E 010°06'0 0.0
2014-Aug-20 13:16N 33°55' E 010°06'3 4.3
2014-Aug-20 12:29N 33°58' E 010°09'1 0.7
2014-Aug-20 11:33N 33°59' E 010°09'0 0.0
2014-Aug-20 08:33N 33°59' E 010°09'0 0.0
2014-Aug-20 05:09N 33°59' E 010°09'0 0.0
2014-Aug-20 04:33N 33°59' E 010°09'0 0.0
2014-Aug-20 00:27N 33°59' E 010°09'0 0.0
2014-Aug-19 23:33N 33°59' E 010°09'0 0.0
2014-Aug-19 22:33N 33°59' E 010°09'0 0.0
2014-Aug-19 21:33N 33°59' E 010°09'0 0.0
2014-Aug-19 20:33N 33°59' E 010°09'0 0.0
2014-Aug-19 19:30N 33°59' E 010°09'0 0.1
2014-Aug-19 18:33N 33°59' E 010°09'9 9.2
2014-Aug-19 17:34N 34°01' E 010°19'1212.4
2014-Aug-19 16:33N 34°07' E 010°32'1212.1
2014-Aug-19 15:33N 34°12' E 010°46'1212.2
2014-Aug-19 14:33N 34°18' E 010°59'1212.1
2014-Aug-19 13:33N 34°23' E 011°12'1212.1
2014-Aug-19 12:33N 34°28' E 011°26'1212.0
2014-Aug-19 11:33N 34°33' E 011°39'1812.1
2014-Aug-19 10:04N 34°41' E 011°58'812.2
2014-Aug-19 09:22N 34°45' E 012°07'1012.4
2014-Aug-19 08:34N 34°49' E 012°19'1212.5
2014-Aug-19 07:33N 34°55' E 012°32'1312.5
2014-Aug-19 06:33N 35°00' E 012°46'1312.7
2014-Aug-19 05:33N 35°05' E 013°01'2512.6
2014-Aug-19 03:34N 35°11' E 013°30'1211.9
2014-Aug-19 02:32N 35°14' E 013°45'1111.7
2014-Aug-19 01:34N 35°17' E 013°58'1211.9
2014-Aug-19 00:31N 35°20' E 014°13'1111.4
2014-Aug-18 23:32N 35°26' E 014°25'1311.9
2014-Aug-18 22:27N 35°36' E 014°35'1111.9
2014-Aug-18 21:33N 35°43' E 014°44'1311.8
2014-Aug-18 20:28N 35°52' E 014°57'  
Track history (hours):
 
Tides and Currents Weather Stations Pressure Air Temp Water Temp Dewpoint Dewpoint Depression Visibility Wind Speed Wind Dir Waves Ship Positions

Sigas Ingrid

Last reported at 2014-Aug-23 03:27 UTC. Time now 2014-Aug-23 05:36 UTC.
Position N 38°55' E 012°42'.

Length 100 m; draft 5.5 m.

Type: Ship (hazmat cat B). MMSI: 477658800.

Date/timePositionNaut miles runAvg speedWind from/ knotsBaromVisibWave heightAir tempDewpointWater temp
2014-Aug-23 03:27N 38°55' E 012°42'1111.9
2014-Aug-23 02:33N 38°47' E 012°34'1312.2
2014-Aug-23 01:32N 38°36' E 012°25'11010.5
2014-Aug-22 15:04N 36°46' E 012°28'8012.4
2014-Aug-22 08:33N 35°27' E 012°48'1212.2
2014-Aug-22 07:33N 35°15' E 012°51'1211.9
2014-Aug-22 06:33N 35°03' E 012°52'1111.1
2014-Aug-22 05:33N 34°58' E 012°40'1111.2
2014-Aug-22 04:33N 34°53' E 012°28'1111.2
2014-Aug-22 03:33N 34°48' E 012°16'1511.3
2014-Aug-22 02:11N 34°41' E 011°59'4211.1
2014-Aug-21 22:26N 34°23' E 011°13'2111.0
2014-Aug-21 20:29N 34°14' E 010°50'2511.0
2014-Aug-21 18:14N 34°03' E 010°23'710.7
2014-Aug-21 17:33N 33°60' E 010°15'9 8.1
2014-Aug-21 16:28N 33°55' E 010°06'0 0.0
2014-Aug-21 15:28N 33°55' E 010°06'0 0.0
2014-Aug-20 13:16N 33°55' E 010°06'3 4.3
2014-Aug-20 12:29N 33°58' E 010°09'1 0.7
2014-Aug-20 11:33N 33°59' E 010°09'0 0.0
2014-Aug-20 08:33N 33°59' E 010°09'0 0.0
2014-Aug-20 05:09N 33°59' E 010°09'0 0.0
2014-Aug-20 04:33N 33°59' E 010°09'0 0.0
2014-Aug-20 00:27N 33°59' E 010°09'0 0.0
2014-Aug-19 23:33N 33°59' E 010°09'0 0.0
2014-Aug-19 22:33N 33°59' E 010°09'0 0.0
2014-Aug-19 21:33N 33°59' E 010°09'0 0.0
2014-Aug-19 20:33N 33°59' E 010°09'0 0.0
2014-Aug-19 19:30N 33°59' E 010°09'0 0.1
2014-Aug-19 18:33N 33°59' E 010°09'9 9.2
2014-Aug-19 17:34N 34°01' E 010°19'1212.4
2014-Aug-19 16:33N 34°07' E 010°32'1212.1
2014-Aug-19 15:33N 34°12' E 010°46'1212.2
2014-Aug-19 14:33N 34°18' E 010°59'1212.1
2014-Aug-19 13:33N 34°23' E 011°12'1212.1
2014-Aug-19 12:33N 34°28' E 011°26'1212.0
2014-Aug-19 11:33N 34°33' E 011°39'1812.1
2014-Aug-19 10:04N 34°41' E 011°58'812.2
2014-Aug-19 09:22N 34°45' E 012°07'1012.4
2014-Aug-19 08:34N 34°49' E 012°19'1212.5
2014-Aug-19 07:33N 34°55' E 012°32'1312.5
2014-Aug-19 06:33N 35°00' E 012°46'1312.7
2014-Aug-19 05:33N 35°05' E 013°01'2512.6
2014-Aug-19 03:34N 35°11' E 013°30'1211.9
2014-Aug-19 02:32N 35°14' E 013°45'1111.7
2014-Aug-19 01:34N 35°17' E 013°58'1211.9
2014-Aug-19 00:31N 35°20' E 014°13'1111.4
2014-Aug-18 23:32N 35°26' E 014°25'1311.9
2014-Aug-18 22:27N 35°36' E 014°35'1111.9
2014-Aug-18 21:33N 35°43' E 014°44'1311.8
2014-Aug-18 20:28N 35°52' E 014°57'  

Dump ship's entire track history